createdAt,value
2019-03-09T00:00:23.158Z,8.18
2019-03-09T00:01:23.123Z,8.16
2019-03-09T00:02:23.121Z,8.17
2019-03-09T00:03:23.115Z,8.15
2019-03-09T00:04:23.153Z,8.15
2019-03-09T00:05:23.143Z,8.14
2019-03-09T00:06:23.144Z,8.15
2019-03-09T00:07:23.161Z,8.13
2019-03-09T00:08:25.124Z,8.13
2019-03-09T00:09:23.120Z,8.14
2019-03-09T00:10:23.115Z,8.13
2019-03-09T00:11:23.098Z,8.13
2019-03-09T00:12:23.102Z,8.13
2019-03-09T00:13:23.113Z,8.14
2019-03-09T00:14:23.110Z,8.13
2019-03-09T00:15:23.100Z,8.13
2019-03-09T00:16:23.172Z,8.11
2019-03-09T00:17:23.157Z,8.14
2019-03-09T00:18:23.253Z,8.13
2019-03-09T00:19:23.149Z,8.1
2019-03-09T00:20:23.122Z,8.13
2019-03-09T00:21:23.123Z,8.13
2019-03-09T00:22:23.097Z,8.13
2019-03-09T00:23:23.099Z,8.1
2019-03-09T00:24:23.116Z,8.12
2019-03-09T00:25:25.035Z,8.09
2019-03-09T00:26:23.117Z,8.09
2019-03-09T00:27:30.548Z,8.1
2019-03-09T00:28:23.114Z,8.09
2019-03-09T00:29:23.342Z,8.09
2019-03-09T00:30:23.277Z,8.12
2019-03-09T00:31:23.105Z,8.1
2019-03-09T00:32:23.086Z,8.12
2019-03-09T00:33:23.092Z,8.12
2019-03-09T00:34:23.114Z,8.13
2019-03-09T00:35:23.148Z,8.13
2019-03-09T00:36:23.247Z,8.13
2019-03-09T00:37:23.090Z,8.13
2019-03-09T00:38:23.136Z,8.14
2019-03-09T00:39:23.071Z,8.13
2019-03-09T00:40:23.113Z,8.13
2019-03-09T00:41:23.150Z,8.13
2019-03-09T00:42:25.149Z,8.13
2019-03-09T00:43:23.079Z,8.14
2019-03-09T00:44:23.074Z,8.14
2019-03-09T00:45:23.118Z,8.14
2019-03-09T00:46:23.090Z,8.14
2019-03-09T00:47:23.130Z,8.15
2019-03-09T00:48:23.098Z,8.14
2019-03-09T00:49:23.117Z,8.13
2019-03-09T00:50:23.552Z,8.15
2019-03-09T00:51:23.115Z,8.14
2019-03-09T00:52:23.165Z,8.15
2019-03-09T00:53:23.088Z,8.14
2019-03-09T00:54:23.071Z,8.14
2019-03-09T00:55:23.070Z,8.13
2019-03-09T00:56:23.047Z,8.14
2019-03-09T00:57:23.068Z,8.14
2019-03-09T00:58:23.043Z,8.15
2019-03-09T00:59:23.099Z,8.14
2019-03-09T01:00:23.071Z,8.15
2019-03-09T01:01:23.066Z,8.13
2019-03-09T01:02:23.280Z,8.14
2019-03-09T01:03:23.026Z,8.14
2019-03-09T01:04:23.041Z,8.15
2019-03-09T01:05:23.051Z,8.15
2019-03-09T01:06:23.047Z,8.15
2019-03-09T01:07:23.155Z,8.15
2019-03-09T01:08:23.033Z,8.17
2019-03-09T01:09:23.104Z,8.16
2019-03-09T01:10:23.027Z,8.15
2019-03-09T01:11:23.033Z,8.19
2019-03-09T01:12:23.065Z,8.18
2019-03-09T01:13:23.391Z,8.2
2019-03-09T01:14:23.023Z,8.19
2019-03-09T01:15:23.017Z,8.2
2019-03-09T01:16:23.040Z,8.2
2019-03-09T01:17:23.002Z,8.2
2019-03-09T01:18:23.029Z,8.19
2019-03-09T01:19:23.030Z,8.21
2019-03-09T01:20:23.070Z,8.2
2019-03-09T01:21:23.025Z,8.19
2019-03-09T01:22:23.018Z,8.21
2019-03-09T01:23:22.999Z,8.23
2019-03-09T01:24:22.992Z,8.21
2019-03-09T01:25:22.979Z,8.22
2019-03-09T01:26:22.980Z,8.24
2019-03-09T01:27:22.990Z,8.21
2019-03-09T01:28:22.995Z,8.23
2019-03-09T01:29:23.025Z,8.24
2019-03-09T01:30:22.983Z,8.21
2019-03-09T01:31:22.999Z,8.23
2019-03-09T01:32:22.974Z,8.21
2019-03-09T01:33:23.005Z,8.22
2019-03-09T01:34:23.050Z,8.24
2019-03-09T01:35:22.991Z,8.22
2019-03-09T01:36:22.977Z,8.25
2019-03-09T01:37:22.995Z,8.25
2019-03-09T01:38:22.980Z,8.26
2019-03-09T01:39:22.986Z,8.26
2019-03-09T01:40:22.936Z,8.26
2019-03-09T01:41:22.969Z,8.26
2019-03-09T01:42:22.956Z,8.28
2019-03-09T01:43:22.965Z,8.27
2019-03-09T01:44:22.957Z,8.28
2019-03-09T01:45:22.973Z,8.29
2019-03-09T01:46:22.987Z,8.32
2019-03-09T01:47:22.975Z,8.33
2019-03-09T01:48:22.934Z,8.33
2019-03-09T01:49:22.984Z,8.37
2019-03-09T01:50:22.987Z,8.38
2019-03-09T01:51:23.008Z,8.39
2019-03-09T01:52:22.938Z,8.36
2019-03-09T01:53:22.961Z,8.4
2019-03-09T01:54:22.949Z,8.43
2019-03-09T01:55:23.277Z,8.43
2019-03-09T01:56:23.171Z,8.45
2019-03-09T01:57:22.944Z,8.46
2019-03-09T01:58:22.985Z,8.47
2019-03-09T01:59:23.021Z,8.49
2019-03-09T02:00:22.953Z,8.48
2019-03-09T02:01:22.972Z,8.51
2019-03-09T02:02:23.009Z,8.52
2019-03-09T02:03:22.993Z,8.53
2019-03-09T02:04:22.975Z,8.53
2019-03-09T02:05:22.990Z,8.53
2019-03-09T02:06:23.007Z,8.54
2019-03-09T02:07:22.938Z,8.57
2019-03-09T02:08:22.904Z,8.58
2019-03-09T02:09:22.941Z,8.59
2019-03-09T02:10:22.949Z,8.59
2019-03-09T02:11:22.922Z,8.6
2019-03-09T02:12:22.969Z,8.63
2019-03-09T02:13:23.001Z,8.64
2019-03-09T02:14:22.962Z,8.63
2019-03-09T02:15:22.911Z,8.64
2019-03-09T02:16:22.905Z,8.65
2019-03-09T02:17:22.937Z,8.65
2019-03-09T02:18:22.905Z,8.64
2019-03-09T02:19:22.926Z,8.65
2019-03-09T02:20:22.928Z,8.68
2019-03-09T02:21:22.919Z,8.66
2019-03-09T02:22:22.902Z,8.68
2019-03-09T02:23:22.957Z,8.67
2019-03-09T02:24:22.917Z,8.69
2019-03-09T02:25:22.917Z,8.7
2019-03-09T02:26:22.931Z,8.68
2019-03-09T02:27:22.932Z,8.67
2019-03-09T02:28:22.931Z,8.7
2019-03-09T02:29:22.921Z,8.71
2019-03-09T02:30:22.947Z,8.71
2019-03-09T02:31:22.928Z,8.72
2019-03-09T02:32:22.935Z,8.72
2019-03-09T02:33:22.972Z,8.71
2019-03-09T02:34:23.032Z,8.71
2019-03-09T02:35:22.931Z,8.71
2019-03-09T02:36:23.007Z,8.7
2019-03-09T02:37:22.931Z,8.72
2019-03-09T02:38:23.367Z,8.76
2019-03-09T02:39:23.028Z,8.72
2019-03-09T02:40:23.770Z,8.75
2019-03-09T02:41:22.939Z,8.76
2019-03-09T02:42:22.898Z,8.76
2019-03-09T02:43:22.884Z,8.76
2019-03-09T02:44:22.902Z,8.76
2019-03-09T02:45:22.985Z,8.8
2019-03-09T02:46:22.912Z,8.77
2019-03-09T02:47:23.042Z,8.77
2019-03-09T02:48:22.958Z,8.81
2019-03-09T02:49:22.974Z,8.8
2019-03-09T02:50:22.949Z,8.84
2019-03-09T02:51:22.902Z,8.85
2019-03-09T02:52:22.903Z,8.85
2019-03-09T02:53:22.898Z,8.88
2019-03-09T02:54:22.917Z,8.89
2019-03-09T02:55:22.937Z,8.89
2019-03-09T02:56:22.910Z,8.89
2019-03-09T02:57:22.917Z,8.9
2019-03-09T02:58:22.936Z,8.91
2019-03-09T02:59:22.913Z,8.91
2019-03-09T03:00:23.035Z,8.9
2019-03-09T03:01:23.179Z,8.9
2019-03-09T03:02:22.962Z,8.9
2019-03-09T03:03:22.907Z,8.9
2019-03-09T03:04:22.952Z,8.9
2019-03-09T03:05:22.927Z,8.91
2019-03-09T03:06:22.936Z,8.91
2019-03-09T03:07:22.916Z,8.9
2019-03-09T03:08:22.862Z,8.91
2019-03-09T03:09:22.869Z,8.91
2019-03-09T03:10:22.895Z,8.92
2019-03-09T03:11:22.910Z,8.94
2019-03-09T03:12:22.872Z,8.92
2019-03-09T03:13:22.813Z,8.92
2019-03-09T03:14:22.917Z,8.9
2019-03-09T03:15:22.848Z,8.91
2019-03-09T03:16:22.852Z,8.92
2019-03-09T03:17:22.862Z,8.92
2019-03-09T03:18:22.901Z,8.91
2019-03-09T03:19:22.863Z,8.92
2019-03-09T03:20:22.839Z,8.92
2019-03-09T03:21:22.952Z,8.94
2019-03-09T03:22:22.858Z,8.97
2019-03-09T03:23:22.836Z,8.95
2019-03-09T03:24:22.862Z,8.95
2019-03-09T03:25:22.872Z,8.97
2019-03-09T03:26:22.857Z,8.98
2019-03-09T03:27:22.863Z,8.98
2019-03-09T03:28:22.860Z,8.98
2019-03-09T03:29:22.832Z,9
2019-03-09T03:30:23.319Z,8.99
2019-03-09T03:31:22.866Z,8.99
2019-03-09T03:32:22.913Z,8.99
2019-03-09T03:33:23.212Z,8.99
2019-03-09T03:34:23.016Z,9.02
2019-03-09T03:35:22.847Z,9.04
2019-03-09T03:36:22.834Z,9.05
2019-03-09T03:37:22.835Z,9.08
2019-03-09T03:38:22.834Z,9.05
2019-03-09T03:39:22.838Z,9.08
2019-03-09T03:40:22.882Z,9.08
2019-03-09T03:41:22.830Z,9.09
2019-03-09T03:42:22.820Z,9.06
2019-03-09T03:43:22.869Z,9.08
2019-03-09T03:44:22.925Z,9.09
2019-03-09T03:45:22.780Z,9.1
2019-03-09T03:46:22.826Z,9.1
2019-03-09T03:47:22.791Z,9.11
2019-03-09T03:48:22.853Z,9.13
2019-03-09T03:49:22.829Z,9.17
2019-03-09T03:50:22.837Z,9.17
2019-03-09T03:51:22.855Z,9.17
2019-03-09T03:52:22.874Z,9.17
2019-03-09T03:53:22.844Z,9.16
2019-03-09T03:54:22.899Z,9.17
2019-03-09T03:55:22.885Z,9.16
2019-03-09T03:56:22.809Z,9.16
2019-03-09T03:57:22.835Z,9.18
2019-03-09T03:58:22.815Z,9.16
2019-03-09T03:59:22.782Z,9.16
2019-03-09T04:00:23.098Z,9.16
2019-03-09T04:01:22.782Z,9.15
2019-03-09T04:02:22.766Z,9.15
2019-03-09T04:03:22.785Z,9.17
2019-03-09T04:04:22.796Z,9.17
2019-03-09T04:05:22.830Z,9.18
2019-03-09T04:06:22.789Z,9.18
2019-03-09T04:07:22.780Z,9.18
2019-03-09T04:08:22.790Z,9.18
2019-03-09T04:09:22.814Z,9.17
2019-03-09T04:10:22.846Z,9.15
2019-03-09T04:11:22.787Z,9.13
2019-03-09T04:12:22.857Z,9.14
2019-03-09T04:13:22.778Z,9.11
2019-03-09T04:14:22.773Z,9.1
2019-03-09T04:15:22.769Z,9.09
2019-03-09T04:16:22.797Z,9.06
2019-03-09T04:17:22.775Z,9.07
2019-03-09T04:18:22.841Z,9.04
2019-03-09T04:19:22.730Z,9.03
2019-03-09T04:20:22.738Z,9.02
2019-03-09T04:21:22.794Z,9.02
2019-03-09T04:22:22.787Z,9.01
2019-03-09T04:23:24.208Z,9
2019-03-09T04:24:22.728Z,8.98
2019-03-09T04:25:22.747Z,8.95
2019-03-09T04:26:22.740Z,8.95
2019-03-09T04:27:22.791Z,8.95
2019-03-09T04:28:22.757Z,8.93
2019-03-09T04:29:22.749Z,8.91
2019-03-09T04:30:22.785Z,8.93
2019-03-09T04:31:22.746Z,8.91
2019-03-09T04:32:22.729Z,8.91
2019-03-09T04:33:22.723Z,8.89
2019-03-09T04:34:22.726Z,8.87
2019-03-09T04:35:22.737Z,8.88
2019-03-09T04:36:22.747Z,8.85
2019-03-09T04:37:22.717Z,8.85
2019-03-09T04:38:22.718Z,8.84
2019-03-09T04:39:22.718Z,8.83
2019-03-09T04:40:22.835Z,8.78
2019-03-09T04:41:23.118Z,8.78
2019-03-09T04:42:22.734Z,8.74
2019-03-09T04:43:22.704Z,8.72
2019-03-09T04:44:22.679Z,8.72
2019-03-09T04:45:22.678Z,8.7
2019-03-09T04:46:22.691Z,8.68
2019-03-09T04:47:22.718Z,8.66
2019-03-09T04:48:22.745Z,8.65
2019-03-09T04:49:22.669Z,8.61
2019-03-09T04:50:22.710Z,8.62
2019-03-09T04:51:22.713Z,8.61
2019-03-09T04:52:22.703Z,8.59
2019-03-09T04:53:22.715Z,8.51
2019-03-09T04:54:22.758Z,8.53
2019-03-09T04:55:22.721Z,8.55
2019-03-09T04:56:22.694Z,8.48
2019-03-09T04:57:22.742Z,8.46
2019-03-09T04:58:22.695Z,8.47
2019-03-09T04:59:22.697Z,8.46
2019-03-09T05:00:22.684Z,8.46
2019-03-09T05:01:22.704Z,8.43
2019-03-09T05:02:22.738Z,8.41
2019-03-09T05:03:22.807Z,8.41
2019-03-09T05:04:22.668Z,8.37
2019-03-09T05:05:22.678Z,8.35
2019-03-09T05:06:22.691Z,8.34
2019-03-09T05:07:22.717Z,8.35
2019-03-09T05:08:22.697Z,8.35
2019-03-09T05:09:22.661Z,8.35
2019-03-09T05:10:22.701Z,8.34
2019-03-09T05:11:22.683Z,8.34
2019-03-09T05:12:22.771Z,8.28
2019-03-09T05:13:22.698Z,8.27
2019-03-09T05:14:22.650Z,8.25
2019-03-09T05:15:22.665Z,8.26
2019-03-09T05:16:22.688Z,8.25
2019-03-09T05:17:22.663Z,8.21
2019-03-09T05:18:22.659Z,8.21
2019-03-09T05:19:22.682Z,8.2
2019-03-09T05:20:22.675Z,8.17
2019-03-09T05:21:22.748Z,8.16
2019-03-09T05:22:22.655Z,8.15
2019-03-09T05:23:22.653Z,8.12
2019-03-09T05:24:22.948Z,8.14
2019-03-09T05:25:22.648Z,8.11
2019-03-09T05:26:22.653Z,8.11
2019-03-09T05:27:22.638Z,8.1
2019-03-09T05:28:22.629Z,8.1
2019-03-09T05:29:22.618Z,8.1
2019-03-09T05:30:22.653Z,8.09
2019-03-09T05:31:22.660Z,8.1
2019-03-09T05:32:22.643Z,8.06
2019-03-09T05:33:22.679Z,8.08
2019-03-09T05:34:22.651Z,8.04
2019-03-09T05:35:22.634Z,8.05
2019-03-09T05:36:22.620Z,8.05
2019-03-09T05:37:22.610Z,8.03
2019-03-09T05:38:22.646Z,8.02
2019-03-09T05:39:22.659Z,7.95
2019-03-09T05:40:22.657Z,7.92
2019-03-09T05:41:22.608Z,7.94
2019-03-09T05:42:22.642Z,7.92
2019-03-09T05:43:22.638Z,7.91
2019-03-09T05:44:22.651Z,7.9
2019-03-09T05:45:22.629Z,7.9
2019-03-09T05:46:22.726Z,7.89
2019-03-09T05:47:22.876Z,7.85
2019-03-09T05:48:22.643Z,7.81
2019-03-09T05:49:22.644Z,7.83
2019-03-09T05:50:22.613Z,7.8
2019-03-09T05:51:22.627Z,7.83
2019-03-09T05:52:22.600Z,7.8
2019-03-09T05:53:22.602Z,7.79
2019-03-09T05:54:22.794Z,7.78
2019-03-09T05:55:22.664Z,7.8
2019-03-09T05:56:22.619Z,7.78
2019-03-09T05:57:22.624Z,7.79
2019-03-09T05:58:22.605Z,7.77
2019-03-09T05:59:22.610Z,7.78
2019-03-09T06:00:22.586Z,7.8
2019-03-09T06:01:22.589Z,7.81
2019-03-09T06:02:22.580Z,7.82
2019-03-09T06:03:22.634Z,7.81
2019-03-09T06:04:22.618Z,7.79
2019-03-09T06:05:22.608Z,7.8
2019-03-09T06:06:22.584Z,7.83
2019-03-09T06:07:22.598Z,7.84
2019-03-09T06:08:22.667Z,7.83
2019-03-09T06:09:22.605Z,7.85
2019-03-09T06:10:22.588Z,7.81
2019-03-09T06:11:22.603Z,7.84
2019-03-09T06:12:22.581Z,7.85
2019-03-09T06:13:22.558Z,7.83
2019-03-09T06:14:22.582Z,7.84
2019-03-09T06:15:22.564Z,7.82
2019-03-09T06:16:22.581Z,7.82
2019-03-09T06:17:22.612Z,7.84
2019-03-09T06:18:22.595Z,7.84
2019-03-09T06:19:22.552Z,7.85
2019-03-09T06:20:22.554Z,7.85
2019-03-09T06:21:22.681Z,7.83
2019-03-09T06:22:22.562Z,7.84
2019-03-09T06:23:22.566Z,7.86
2019-03-09T06:24:22.550Z,7.86
2019-03-09T06:25:22.584Z,7.86
2019-03-09T06:26:22.547Z,7.85
2019-03-09T06:27:22.568Z,7.88
2019-03-09T06:28:22.565Z,7.87
2019-03-09T06:29:22.545Z,7.92
2019-03-09T06:30:22.673Z,7.91
2019-03-09T06:31:22.557Z,7.93
2019-03-09T06:32:22.545Z,7.93
2019-03-09T06:33:22.549Z,7.92
2019-03-09T06:34:22.574Z,7.93
2019-03-09T06:35:22.554Z,7.92
2019-03-09T06:36:22.721Z,7.93
2019-03-09T06:37:22.570Z,7.96
2019-03-09T06:38:22.529Z,7.93
2019-03-09T06:39:22.538Z,7.95
2019-03-09T06:40:22.531Z,7.92
2019-03-09T06:41:22.524Z,7.95
2019-03-09T06:42:22.532Z,7.96
2019-03-09T06:43:22.546Z,7.95
2019-03-09T06:44:22.569Z,7.96
2019-03-09T06:45:22.536Z,7.96
2019-03-09T06:46:22.543Z,7.98
2019-03-09T06:47:22.638Z,7.98
2019-03-09T06:48:22.542Z,7.97
2019-03-09T06:49:22.514Z,7.97
2019-03-09T06:50:22.517Z,7.98
2019-03-09T06:51:22.576Z,7.96
2019-03-09T06:52:23.465Z,8
2019-03-09T06:53:22.534Z,7.98
2019-03-09T06:54:22.559Z,8
2019-03-09T06:55:22.550Z,8
2019-03-09T06:56:22.505Z,8.02
2019-03-09T06:57:22.571Z,8.02
2019-03-09T06:58:22.509Z,8
2019-03-09T06:59:22.554Z,8.01
2019-03-09T07:00:22.525Z,8.02
2019-03-09T07:01:22.549Z,8.04
2019-03-09T07:02:22.507Z,8.04
2019-03-09T07:03:22.536Z,8.05
2019-03-09T07:04:22.506Z,8.06
2019-03-09T07:05:22.537Z,8.08
2019-03-09T07:06:22.501Z,8.09
2019-03-09T07:07:22.502Z,8.1
2019-03-09T07:08:22.514Z,8.1
2019-03-09T07:09:22.543Z,8.12
2019-03-09T07:10:22.501Z,8.13
2019-03-09T07:11:22.504Z,8.11
2019-03-09T07:12:22.530Z,8.13
2019-03-09T07:13:22.507Z,8.13
2019-03-09T07:14:22.932Z,8.14
2019-03-09T07:15:22.530Z,8.15
2019-03-09T07:16:22.483Z,8.17
2019-03-09T07:17:22.484Z,8.17
2019-03-09T07:18:22.527Z,8.18
2019-03-09T07:19:22.533Z,8.21
2019-03-09T07:20:22.725Z,8.21
2019-03-09T07:21:22.489Z,8.22
2019-03-09T07:22:22.500Z,8.23
2019-03-09T07:23:22.480Z,8.27
2019-03-09T07:24:22.542Z,8.24
2019-03-09T07:25:22.498Z,8.28
2019-03-09T07:26:22.495Z,8.29
2019-03-09T07:27:22.456Z,8.29
2019-03-09T07:28:22.494Z,8.31
2019-03-09T07:29:22.476Z,8.33
2019-03-09T07:30:22.540Z,8.34
2019-03-09T07:31:22.506Z,8.35
2019-03-09T07:32:22.512Z,8.36
2019-03-09T07:33:22.469Z,8.35
2019-03-09T07:34:22.518Z,8.37
2019-03-09T07:35:22.480Z,8.41
2019-03-09T07:36:22.438Z,8.41
2019-03-09T07:37:22.442Z,8.43
2019-03-09T07:38:22.460Z,8.42
2019-03-09T07:39:22.486Z,8.43
2019-03-09T07:40:22.519Z,8.45
2019-03-09T07:41:22.467Z,8.43
2019-03-09T07:42:22.467Z,8.47
2019-03-09T07:43:22.481Z,8.47
2019-03-09T07:44:22.461Z,8.48
2019-03-09T07:45:22.491Z,8.49
2019-03-09T07:46:22.491Z,8.51
2019-03-09T07:47:22.454Z,8.51
2019-03-09T07:48:22.434Z,8.53
2019-03-09T07:49:22.466Z,8.54
2019-03-09T07:50:22.448Z,8.53
2019-03-09T07:51:22.454Z,8.55
2019-03-09T07:52:22.440Z,8.54
2019-03-09T07:53:22.470Z,8.57
2019-03-09T07:54:22.448Z,8.56
2019-03-09T07:55:22.458Z,8.59
2019-03-09T07:56:22.439Z,8.59
2019-03-09T07:57:22.442Z,8.58
2019-03-09T07:58:22.459Z,8.58
2019-03-09T07:59:22.428Z,8.59
2019-03-09T08:00:22.509Z,8.6
2019-03-09T08:01:24.354Z,8.62
2019-03-09T08:02:22.425Z,8.67
2019-03-09T08:03:22.440Z,8.69
2019-03-09T08:04:22.431Z,8.68
2019-03-09T08:05:22.435Z,8.7
2019-03-09T08:06:22.434Z,8.7
2019-03-09T08:07:22.416Z,8.73
2019-03-09T08:08:22.446Z,8.73
2019-03-09T08:09:24.741Z,8.75
2019-03-09T08:10:22.459Z,8.74
2019-03-09T08:11:22.443Z,8.75
2019-03-09T08:12:24.538Z,8.77
2019-03-09T08:13:22.439Z,8.78
2019-03-09T08:14:22.463Z,8.8
2019-03-09T08:15:22.456Z,8.8
2019-03-09T08:16:22.403Z,8.82
2019-03-09T08:17:22.424Z,8.84
2019-03-09T08:18:22.541Z,8.85
2019-03-09T08:19:22.687Z,8.85
2019-03-09T08:20:22.480Z,8.86
2019-03-09T08:21:22.466Z,8.88
2019-03-09T08:22:22.412Z,8.89
2019-03-09T08:23:22.445Z,8.91
2019-03-09T08:24:22.433Z,8.92
2019-03-09T08:25:22.448Z,8.91
2019-03-09T08:26:22.414Z,8.92
2019-03-09T08:27:22.484Z,8.93
2019-03-09T08:28:22.483Z,8.98
2019-03-09T08:29:22.396Z,9
2019-03-09T08:30:22.514Z,9
2019-03-09T08:31:22.474Z,9.02
2019-03-09T08:32:22.501Z,9.04
2019-03-09T08:33:22.534Z,9.04
2019-03-09T08:34:22.429Z,9.08
2019-03-09T08:35:22.416Z,9.06
2019-03-09T08:36:22.410Z,9.08
2019-03-09T08:37:22.486Z,9.1
2019-03-09T08:38:22.481Z,9.1
2019-03-09T08:39:22.457Z,9.1
2019-03-09T08:40:22.557Z,9.09
2019-03-09T08:41:22.573Z,9.14
2019-03-09T08:42:22.433Z,9.14
2019-03-09T08:43:22.455Z,9.12
2019-03-09T08:44:22.434Z,9.14
2019-03-09T08:45:22.436Z,9.13
2019-03-09T08:46:22.536Z,9.14
2019-03-09T08:47:22.508Z,9.14
2019-03-09T08:48:22.495Z,9.16
2019-03-09T08:49:22.472Z,9.17
2019-03-09T08:50:22.847Z,9.17
2019-03-09T08:51:22.484Z,9.18
2019-03-09T08:52:22.494Z,9.2
2019-03-09T08:53:22.495Z,9.18
2019-03-09T08:54:22.480Z,9.21
2019-03-09T08:55:22.605Z,9.2
2019-03-09T08:56:22.462Z,9.2
2019-03-09T08:57:22.443Z,9.21
2019-03-09T08:58:22.474Z,9.22
2019-03-09T08:59:22.515Z,9.23
2019-03-09T09:00:22.566Z,9.23
2019-03-09T09:01:22.440Z,9.24
2019-03-09T09:02:23.057Z,9.26
2019-03-09T09:03:22.350Z,9.27
2019-03-09T09:04:22.351Z,9.28
2019-03-09T09:05:22.359Z,9.27
2019-03-09T09:06:22.336Z,9.29
2019-03-09T09:07:22.374Z,9.3
2019-03-09T09:08:22.387Z,9.29
2019-03-09T09:09:22.390Z,9.31
2019-03-09T09:10:22.407Z,9.33
2019-03-09T09:11:22.362Z,9.33
2019-03-09T09:12:22.325Z,9.36
2019-03-09T09:13:22.345Z,9.39
2019-03-09T09:14:22.327Z,9.41
2019-03-09T09:15:22.335Z,9.43
2019-03-09T09:16:22.344Z,9.43
2019-03-09T09:17:22.347Z,9.43
2019-03-09T09:18:22.325Z,9.43
2019-03-09T09:19:22.314Z,9.45
2019-03-09T09:20:22.320Z,9.47
2019-03-09T09:21:22.323Z,9.45
2019-03-09T09:22:22.332Z,9.48
2019-03-09T09:23:22.898Z,9.47
2019-03-09T09:24:22.316Z,9.48
2019-03-09T09:25:22.437Z,9.48
2019-03-09T09:26:22.331Z,9.51
2019-03-09T09:27:22.283Z,9.53
2019-03-09T09:28:22.309Z,9.55
2019-03-09T09:29:22.348Z,9.54
2019-03-09T09:30:22.343Z,9.55
2019-03-09T09:31:22.334Z,9.56
2019-03-09T09:32:22.345Z,9.56
2019-03-09T09:33:22.329Z,9.59
2019-03-09T09:34:22.357Z,9.57
2019-03-09T09:35:22.302Z,9.6
2019-03-09T09:36:22.321Z,9.61
2019-03-09T09:37:22.323Z,9.62
2019-03-09T09:38:22.361Z,9.64
2019-03-09T09:39:22.305Z,9.67
2019-03-09T09:40:22.359Z,9.66
2019-03-09T09:41:22.383Z,9.68
2019-03-09T09:42:22.320Z,9.69
2019-03-09T09:43:22.338Z,9.7
2019-03-09T09:44:22.311Z,9.69
2019-03-09T09:45:22.434Z,9.72
2019-03-09T09:46:22.315Z,9.72
2019-03-09T09:47:22.365Z,9.72
2019-03-09T09:48:22.290Z,9.74
2019-03-09T09:49:22.303Z,9.75
2019-03-09T09:50:22.342Z,9.75
2019-03-09T09:51:22.292Z,9.76
2019-03-09T09:52:22.291Z,9.74
2019-03-09T09:53:23.935Z,9.74
2019-03-09T09:54:22.271Z,9.75
2019-03-09T09:55:22.280Z,9.76
2019-03-09T09:56:22.277Z,9.77
2019-03-09T09:57:22.309Z,9.79
2019-03-09T09:58:22.322Z,9.79
2019-03-09T09:59:22.307Z,9.8
2019-03-09T10:00:22.383Z,9.82
2019-03-09T10:01:22.318Z,9.84
2019-03-09T10:02:22.274Z,9.82
2019-03-09T10:03:22.301Z,9.85
2019-03-09T10:04:22.259Z,9.86
2019-03-09T10:05:22.294Z,9.91
2019-03-09T10:06:22.027Z,9.92
2019-03-09T10:07:22.359Z,9.93
2019-03-09T10:08:22.295Z,9.94
2019-03-09T10:09:22.291Z,9.97
2019-03-09T10:10:22.290Z,9.99
2019-03-09T10:11:22.246Z,9.98
2019-03-09T10:12:22.293Z,10
2019-03-09T10:13:22.239Z,10
2019-03-09T10:14:22.243Z,10.01
2019-03-09T10:15:22.242Z,10.04
2019-03-09T10:16:22.293Z,10.08
2019-03-09T10:17:22.351Z,10.1
2019-03-09T10:18:22.234Z,10.12
2019-03-09T10:19:22.290Z,10.14
2019-03-09T10:20:22.244Z,10.13
2019-03-09T10:21:22.238Z,10.12
2019-03-09T10:22:22.227Z,10.15
2019-03-09T10:23:22.249Z,10.17
2019-03-09T10:24:22.226Z,10.19
2019-03-09T10:25:22.267Z,10.21
2019-03-09T10:26:27.004Z,10.21
2019-03-09T10:27:22.222Z,10.21
2019-03-09T10:28:22.236Z,10.22
2019-03-09T10:29:22.433Z,10.24
2019-03-09T10:30:22.242Z,10.24
2019-03-09T10:31:22.191Z,10.27
2019-03-09T10:32:22.228Z,10.27
2019-03-09T10:33:24.569Z,10.29
2019-03-09T10:34:22.261Z,10.31
2019-03-09T10:35:22.262Z,10.33
2019-03-09T10:36:22.281Z,10.32
2019-03-09T10:37:22.229Z,10.33
2019-03-09T10:38:22.230Z,10.35
2019-03-09T10:39:22.222Z,10.37
2019-03-09T10:40:22.236Z,10.39
2019-03-09T10:41:22.218Z,10.38
2019-03-09T10:42:22.218Z,10.4
2019-03-09T10:43:22.210Z,10.41
2019-03-09T10:44:22.207Z,10.41
2019-03-09T10:45:22.269Z,10.42
2019-03-09T10:46:22.203Z,10.4
2019-03-09T10:47:22.227Z,10.4
2019-03-09T10:48:22.193Z,10.4
2019-03-09T10:49:22.214Z,10.4
2019-03-09T10:50:22.287Z,10.37
2019-03-09T10:51:22.315Z,10.38
2019-03-09T10:52:22.185Z,10.36
2019-03-09T10:53:22.251Z,10.38
2019-03-09T10:54:22.197Z,10.35
2019-03-09T10:55:22.211Z,10.34
2019-03-09T10:56:22.193Z,10.32
2019-03-09T10:57:22.187Z,10.3
2019-03-09T10:58:22.207Z,10.29
2019-03-09T10:59:22.289Z,10.28
2019-03-09T11:00:22.181Z,10.27
2019-03-09T11:01:22.198Z,10.26
2019-03-09T11:02:22.169Z,10.23
2019-03-09T11:03:22.207Z,10.22
2019-03-09T11:04:28.234Z,10.21
2019-03-09T11:05:22.228Z,10.17
2019-03-09T11:06:22.180Z,10.15
2019-03-09T11:07:22.169Z,10.15
2019-03-09T11:08:22.189Z,10.15
2019-03-09T11:09:22.223Z,10.14
2019-03-09T11:10:22.225Z,10.11
2019-03-09T11:11:22.186Z,10.12
2019-03-09T11:12:22.216Z,10.1
2019-03-09T11:13:22.179Z,10.14
2019-03-09T11:14:22.208Z,10.12
2019-03-09T11:15:22.177Z,10.09
2019-03-09T11:16:22.252Z,10.07
2019-03-09T11:17:22.156Z,10.03
2019-03-09T11:18:22.157Z,10.03
2019-03-09T11:19:22.188Z,10.03
2019-03-09T11:20:22.171Z,10.03
2019-03-09T11:21:22.159Z,10.03
2019-03-09T11:22:22.156Z,9.98
2019-03-09T11:23:22.161Z,9.97
2019-03-09T11:24:22.159Z,9.98
2019-03-09T11:25:22.189Z,9.98
2019-03-09T11:26:22.164Z,9.97
2019-03-09T11:27:22.306Z,9.97
2019-03-09T11:28:22.149Z,9.97
2019-03-09T11:29:22.178Z,9.98
2019-03-09T11:30:22.166Z,9.93
2019-03-09T11:31:22.158Z,9.93
2019-03-09T11:32:22.147Z,9.91
2019-03-09T11:33:22.175Z,9.93
2019-03-09T11:34:22.634Z,9.91
2019-03-09T11:35:22.203Z,9.91
2019-03-09T11:36:22.215Z,9.92
2019-03-09T11:37:22.173Z,9.92
2019-03-09T11:38:22.158Z,9.92
2019-03-09T11:39:22.215Z,9.93
2019-03-09T11:40:22.170Z,9.89
2019-03-09T11:41:22.155Z,9.86
2019-03-09T11:42:22.142Z,9.9
2019-03-09T11:43:22.250Z,9.91
2019-03-09T11:44:22.127Z,9.94
2019-03-09T11:45:22.154Z,9.93
2019-03-09T11:46:22.137Z,9.94
2019-03-09T11:47:22.145Z,9.97
2019-03-09T11:48:22.138Z,9.95
2019-03-09T11:49:22.161Z,9.94
2019-03-09T11:50:22.218Z,9.98
2019-03-09T11:51:22.141Z,9.98
2019-03-09T11:52:22.125Z,9.98
2019-03-09T11:53:22.151Z,9.97
2019-03-09T11:54:22.909Z,9.94
2019-03-09T11:55:22.137Z,9.97
2019-03-09T11:56:22.101Z,9.96
2019-03-09T11:57:22.113Z,9.98
2019-03-09T11:58:22.114Z,9.97
2019-03-09T11:59:22.217Z,9.98
2019-03-09T12:00:22.107Z,9.98
2019-03-09T12:01:22.113Z,9.99
2019-03-09T12:02:22.154Z,9.99
2019-03-09T12:03:22.103Z,10.02
2019-03-09T12:04:22.109Z,10.01
2019-03-09T12:05:22.213Z,10.03
2019-03-09T12:06:22.103Z,10.01
2019-03-09T12:07:22.101Z,10.03
2019-03-09T12:08:22.083Z,10.03
2019-03-09T12:09:22.085Z,10.04
2019-03-09T12:10:22.241Z,10.05
2019-03-09T12:11:22.243Z,10.05
2019-03-09T12:12:22.127Z,10.06
2019-03-09T12:13:22.109Z,10.09
2019-03-09T12:14:22.177Z,10.09
2019-03-09T12:15:22.088Z,10.11
2019-03-09T12:16:22.175Z,10.14
2019-03-09T12:17:22.102Z,10.15
2019-03-09T12:18:22.068Z,10.17
2019-03-09T12:19:22.087Z,10.17
2019-03-09T12:20:22.110Z,10.17
2019-03-09T12:21:22.093Z,10.22
2019-03-09T12:22:22.090Z,10.21
2019-03-09T12:23:22.217Z,10.24
2019-03-09T12:24:23.187Z,10.24
2019-03-09T12:25:22.141Z,10.25
2019-03-09T12:26:22.106Z,10.25
2019-03-09T12:27:23.078Z,10.28
2019-03-09T12:28:22.097Z,10.29
2019-03-09T12:29:22.050Z,10.3
2019-03-09T12:30:22.122Z,10.3
2019-03-09T12:31:22.079Z,10.31
2019-03-09T12:32:22.061Z,10.33
2019-03-09T12:33:22.078Z,10.31
2019-03-09T12:34:22.076Z,10.34
2019-03-09T12:35:22.080Z,10.33
2019-03-09T12:36:22.080Z,10.34
2019-03-09T12:37:22.035Z,10.35
2019-03-09T12:38:22.079Z,10.35
2019-03-09T12:39:22.928Z,10.35
2019-03-09T12:40:22.250Z,10.36
2019-03-09T12:41:22.086Z,10.35
2019-03-09T12:42:22.187Z,10.35
2019-03-09T12:43:22.087Z,10.36
2019-03-09T12:44:22.142Z,10.38
2019-03-09T12:45:22.095Z,10.37
2019-03-09T12:46:22.056Z,10.4
2019-03-09T12:47:22.085Z,10.39
2019-03-09T12:48:22.175Z,10.37
2019-03-09T12:49:22.052Z,10.39
2019-03-09T12:50:22.183Z,10.39
2019-03-09T12:51:22.040Z,10.36
2019-03-09T12:52:22.053Z,10.38
2019-03-09T12:53:22.090Z,10.35
2019-03-09T12:54:22.035Z,10.32
2019-03-09T12:55:22.018Z,10.33
2019-03-09T12:56:22.035Z,10.3
2019-03-09T12:57:22.044Z,10.32
2019-03-09T12:58:22.067Z,10.3
2019-03-09T12:59:22.043Z,10.3
2019-03-09T13:00:22.120Z,10.31
2019-03-09T13:01:22.450Z,10.28
2019-03-09T13:02:22.020Z,10.27
2019-03-09T13:03:22.019Z,10.28
2019-03-09T13:04:22.054Z,10.27
2019-03-09T13:05:22.048Z,10.27
2019-03-09T13:06:22.057Z,10.24
2019-03-09T13:07:22.039Z,10.23
2019-03-09T13:08:23.897Z,10.25
2019-03-09T13:09:22.034Z,10.24
2019-03-09T13:10:21.999Z,10.27
2019-03-09T13:11:22.041Z,10.24
2019-03-09T13:12:22.062Z,10.27
2019-03-09T13:13:22.001Z,10.29
2019-03-09T13:14:21.990Z,10.29
2019-03-09T13:15:22.036Z,10.29
2019-03-09T13:16:22.022Z,10.29
2019-03-09T13:17:22.001Z,10.28